Time;durP1;ratioP1;P1;durP2;ratioP2;P2;SDS_P1;SDS_P2;PMS_P1;PMS_P2;Temp;Humidity;BMP_temperature;BMP_pressure;BME280_temperature;BME280_humidity;BME280_pressure;Samples;Min_cycle;Max_cycle;Signal;HPM_P1;HPM_P2
2022/06/12 11:29:20;;;;;;;;;;;;;;;31.05;29.59;100162.19;1094893;46;20660;31
2022/06/12 11:31:43;;;;;;;;;;;;;;;30.35;30.58;100178.19;1076068;54;19946;-84
2022/06/12 11:35:18;;;;;;;;;;;;;;;30.18;30.33;100172.91;1075797;54;19958;31
2022/06/12 11:50:21;;;;;;;;;;;;;;;30.51;30.59;100142.38;1086411;47;19931;31
2022/06/12 11:51:42;;;;;;;;;;;;;;;30.38;30.82;100145.66;1081028;54;19953;31
2022/06/12 11:54:05;;;;;;;;;;;;;;;30.04;30.89;100147.81;1076115;54;19958;31
2022/06/12 12:08:42;;;;;;;;;;;;;;;30.06;31.03;100125.53;1089266;39;20482;-86
2022/06/12 12:23:52;;;;;;;;;;;;;;;30.21;29.56;100110.09;1120182;31;20996;31
2022/06/12 12:30:16;;;;;;;;;;;;;;;30.21;30.02;100108.19;1079046;39;20133;31
2022/06/12 12:42:06;;;;;;;;;;;;;;;30.37;28.86;100089.69;1088231;54;19955;-85
2022/06/12 12:45:29;;;;;;;;;;;;;;;30.45;29.14;100086.41;1088814;54;19930;-85
2022/06/12 12:56:10;;;;;;;;;;;;;;;30.14;29.18;100091.06;1075919;54;20714;31
2022/06/12 12:57:15;;;;;;;;;;;;;;;30.02;29.35;100092.19;1076738;39;20091;31
2022/06/12 13:13:29;;;;;;;;;;;;;;;30.62;30.72;100066.81;1090967;39;20577;-84
2022/06/12 13:14:45;;;;;;;;;;;;;;;30.81;30.60;100063.44;1088076;54;19947;-85
2022/06/12 13:15:51;;;;;;;;;;;;;;;30.86;30.45;100070.88;1088688;54;19927;-85
2022/06/12 13:19:09;;;;;;;;;;;;;;;30.87;30.00;100067.88;1088612;54;19926;-87
2022/06/12 13:20:25;;;;;;;;;;;;;;;30.88;29.90;100069.53;1088704;54;19942;-85
2022/06/12 13:21:35;;;;;;;;;;;;;;;30.95;29.81;100064.53;1088643;54;19935;-88
2022/06/12 13:22:47;;;;;;;;;;;;;;;30.78;29.84;100075.06;1088660;54;19942;-87
2022/06/12 13:25:59;;;;;;;;;;;;;;;30.75;29.57;100064.59;1088178;54;20692;-85
2022/06/12 13:27:13;;;;;;;;;;;;;;;30.63;29.03;100062.94;1088378;54;19935;-85
2022/06/12 13:28:22;;;;;;;;;;;;;;;30.75;28.63;100056.31;1088477;54;19971;-87
2022/06/12 13:30:34;;;;;;;;;;;;;;;30.74;28.56;100052.72;1087758;54;21068;-83
2022/06/12 13:31:36;;;;;;;;;;;;;;;30.65;28.36;100046.13;1088049;54;20609;-83
2022/06/12 13:32:40;;;;;;;;;;;;;;;30.41;28.56;100052.19;1088135;54;20323;-84
2022/06/12 13:33:41;;;;;;;;;;;;;;;30.62;28.56;100044.75;1088084;54;19942;-84
2022/06/12 13:34:44;;;;;;;;;;;;;;;30.66;28.64;100045.00;1088052;54;19942;-80
2022/06/12 13:35:50;;;;;;;;;;;;;;;30.75;28.52;100039.75;1088063;54;19943;-81
2022/06/12 13:36:52;;;;;;;;;;;;;;;30.59;28.50;100038.97;1087974;54;20575;-80
2022/06/12 13:37:58;;;;;;;;;;;;;;;30.72;28.37;100037.56;1088055;54;19942;-84
2022/06/12 13:39:01;;;;;;;;;;;;;;;30.79;28.68;100032.59;1089033;46;19927;-82
2022/06/12 13:40:09;;;;;;;;;;;;;;;30.75;28.80;100031.47;1088134;54;19946;-85
2022/06/12 13:41:26;;;;;;;;;;;;;;;30.63;28.81;100018.81;1089451;39;20585;-82
2022/06/12 13:42:31;;;;;;;;;;;;;;;30.81;28.63;100024.81;1088061;54;20094;-82
2022/06/12 13:43:35;;;;;;;;;;;;;;;30.89;28.26;100026.19;1088091;54;19949;-86
2022/06/12 13:44:43;;;;;;;;;;;;;;;30.98;28.71;100023.69;1088088;54;19943;-83
2022/06/12 13:45:55;;;;;;;;;;;;;;;30.89;28.45;100029.75;1088065;54;19966;-83
2022/06/12 13:47:00;;;;;;;;;;;;;;;30.79;28.74;100022.38;1088685;46;19978;-83
2022/06/12 13:48:13;;;;;;;;;;;;;;;30.96;28.80;100021.19;1087938;54;19942;-84
2022/06/12 13:49:24;;;;;;;;;;;;;;;30.88;28.10;100014.34;1088033;54;19943;-85
2022/06/12 13:50:31;;;;;;;;;;;;;;;30.73;27.99;100017.13;1088830;46;20587;-82
2022/06/12 13:51:39;;;;;;;;;;;;;;;30.74;27.92;100030.66;1087838;54;19943;-84
2022/06/12 13:52:47;;;;;;;;;;;;;;;30.81;27.90;100024.81;1087635;54;19942;-85
2022/06/12 13:53:49;;;;;;;;;;;;;;;30.60;27.26;100019.41;1088135;46;19965;-84
2022/06/12 13:54:53;;;;;;;;;;;;;;;30.62;27.39;100022.69;1087990;54;19942;-82
2022/06/12 13:55:57;;;;;;;;;;;;;;;30.61;27.54;100025.72;1088104;54;19942;-83
2022/06/12 13:57:03;;;;;;;;;;;;;;;30.72;27.42;100018.25;1088001;54;19998;-84
2022/06/12 13:58:07;;;;;;;;;;;;;;;30.71;27.54;100020.19;1088054;54;19970;-84
2022/06/12 13:59:16;;;;;;;;;;;;;;;30.80;27.56;100021.25;1088053;54;19990;-83
2022/06/12 14:00:27;;;;;;;;;;;;;;;30.91;27.32;100015.72;1088383;46;19949;-84
2022/06/12 14:01:34;;;;;;;;;;;;;;;31.08;27.42;100020.88;1088066;54;19954;-83
2022/06/12 14:02:40;;;;;;;;;;;;;;;31.07;27.56;100022.81;1087969;54;19943;-84
2022/06/12 14:03:47;;;;;;;;;;;;;;;31.00;27.84;100013.16;1088088;54;19949;-81
2022/06/12 14:04:50;;;;;;;;;;;;;;;30.96;27.94;100016.50;1088084;54;20653;-83
2022/06/12 14:05:56;;;;;;;;;;;;;;;31.14;27.78;100016.19;1097932;39;20106;-83
2022/06/12 14:06:59;;;;;;;;;;;;;;;31.10;27.87;100011.25;1088693;46;20001;-84
2022/06/12 14:08:04;;;;;;;;;;;;;;;31.17;27.76;100016.47;1088379;54;19950;-83
2022/06/12 14:09:07;;;;;;;;;;;;;;;31.00;27.52;100013.16;1088393;54;19994;-83
2022/06/12 14:10:18;;;;;;;;;;;;;;;30.89;28.00;100012.41;1088368;54;19935;-84
2022/06/12 14:11:23;;;;;;;;;;;;;;;30.96;27.66;100008.25;1088401;54;19942;-84
2022/06/12 14:12:27;;;;;;;;;;;;;;;31.10;27.87;100004.84;1089366;46;19938;-83
2022/06/12 14:13:30;;;;;;;;;;;;;;;30.95;27.85;100012.09;1088391;54;19943;-82
2022/06/12 14:14:42;;;;;;;;;;;;;;;31.00;28.01;100005.75;1092139;46;19969;-82
2022/06/12 14:15:43;;;;;;;;;;;;;;;30.67;28.20;100002.53;1090024;46;19958;-83
2022/06/12 14:16:50;;;;;;;;;;;;;;;30.43;28.46;100005.88;1088422;54;19942;-84
2022/06/12 14:17:52;;;;;;;;;;;;;;;30.39;28.30;100001.19;1088341;54;20638;-85
2022/06/12 14:18:58;;;;;;;;;;;;;;;30.42;28.56;100000.66;1089136;31;20547;-84
2022/06/12 14:20:04;;;;;;;;;;;;;;;30.79;28.04;100000.28;1089614;46;19949;-83
2022/06/12 14:21:06;;;;;;;;;;;;;;;31.18;28.02;99997.94;1088119;54;19942;-85
2022/06/12 14:22:16;;;;;;;;;;;;;;;31.35;27.50;99989.31;1088046;46;19949;-82
2022/06/12 14:23:20;;;;;;;;;;;;;;;31.47;27.41;99997.22;1088043;54;19950;-83
2022/06/12 14:24:28;;;;;;;;;;;;;;;31.67;27.01;99991.59;1088319;54;19950;-81
2022/06/12 14:25:33;;;;;;;;;;;;;;;32.01;26.38;99987.19;1089540;46;19999;-81
2022/06/12 14:26:36;;;;;;;;;;;;;;;31.87;26.16;99985.09;1088394;54;19953;-81
2022/06/12 14:27:41;;;;;;;;;;;;;;;32.29;26.08;99981.97;1088271;54;19949;-81
2022/06/12 14:28:43;;;;;;;;;;;;;;;32.71;25.72;99980.41;1088342;54;19927;-82
2022/06/12 14:29:47;;;;;;;;;;;;;;;32.89;25.46;99980.75;1088853;39;20539;-81
2022/06/12 14:30:49;;;;;;;;;;;;;;;32.70;25.03;99981.50;1088219;54;19942;-80
2022/06/12 14:32:06;;;;;;;;;;;;;;;32.38;25.19;99974.69;1088417;54;19949;-79
2022/06/12 14:33:26;;;;;;;;;;;;;;;32.32;24.79;99981.38;1088318;54;20634;-81
2022/06/12 14:34:30;;;;;;;;;;;;;;;32.48;25.11;99976.50;1088303;54;19943;-81
2022/06/12 14:35:31;;;;;;;;;;;;;;;32.46;25.35;99976.81;1088255;54;19943;-82
2022/06/12 14:36:39;;;;;;;;;;;;;;;32.24;25.61;99984.78;1088081;54;19950;-82
2022/06/12 14:37:42;;;;;;;;;;;;;;;31.99;25.77;99975.59;1088303;54;20611;-83
2022/06/12 14:38:46;;;;;;;;;;;;;;;31.98;25.76;99979.47;1087776;54;19942;-82
2022/06/12 14:39:47;;;;;;;;;;;;;;;31.93;25.97;99980.34;1087633;54;19973;-82
2022/06/12 14:40:51;;;;;;;;;;;;;;;32.33;25.51;99974.72;1087572;54;19966;-81
2022/06/12 14:41:56;;;;;;;;;;;;;;;32.60;25.36;99978.88;1087712;54;19942;-82
2022/06/12 14:43:04;;;;;;;;;;;;;;;32.38;25.40;99984.91;1088271;54;19938;-82
2022/06/12 14:44:08;;;;;;;;;;;;;;;32.65;25.43;99981.59;1089366;46;19934;-82
2022/06/12 14:45:11;;;;;;;;;;;;;;;33.05;25.07;99970.31;1088373;54;20610;-83
2022/06/12 14:46:16;;;;;;;;;;;;;;;33.13;24.77;99964.94;1088405;54;19970;-83
2022/06/12 14:47:23;;;;;;;;;;;;;;;33.20;24.82;99966.50;1088305;54;19935;-82
2022/06/12 14:48:27;;;;;;;;;;;;;;;32.99;24.95;99966.78;1088249;54;19950;-83
2022/06/12 14:49:30;;;;;;;;;;;;;;;32.64;25.12;99968.88;1088318;54;19943;-83
2022/06/12 14:50:32;;;;;;;;;;;;;;;32.54;24.95;99964.28;1088397;54;19954;-83
2022/06/12 14:51:35;;;;;;;;;;;;;;;32.45;25.29;99966.06;1090083;46;19927;-82
2022/06/12 14:52:37;;;;;;;;;;;;;;;32.47;25.64;99969.34;1088403;54;19933;-82
2022/06/12 14:53:41;;;;;;;;;;;;;;;32.16;25.47;99970.44;1088180;54;19949;-82
2022/06/12 14:54:42;;;;;;;;;;;;;;;32.31;25.91;99971.44;1087957;54;19939;-83
2022/06/12 14:55:46;;;;;;;;;;;;;;;32.36;25.62;99972.22;1087957;54;19947;-83
2022/06/12 14:56:52;;;;;;;;;;;;;;;32.44;25.86;99969.94;1088196;54;19927;-83
2022/06/12 14:57:54;;;;;;;;;;;;;;;32.18;25.87;99962.69;1087959;54;19948;-82
2022/06/12 14:58:58;;;;;;;;;;;;;;;31.82;25.76;99963.03;1087883;54;19943;-81
2022/06/12 15:00:00;;;;;;;;;;;;;;;31.99;26.29;99959.00;1087956;54;19935;-84
2022/06/12 15:01:05;;;;;;;;;;;;;;;32.01;26.03;99963.13;1088337;54;19943;-83
2022/06/12 15:02:14;;;;;;;;;;;;;;;32.07;25.98;99966.66;1088314;54;19966;-83
2022/06/12 15:03:21;;;;;;;;;;;;;;;31.77;25.58;99968.59;1087928;54;19990;-82
2022/06/12 15:04:25;;;;;;;;;;;;;;;31.47;26.26;99958.56;1087830;54;19946;-82
2022/06/12 15:05:27;;;;;;;;;;;;;;;31.40;26.39;99959.72;1087916;54;19942;-83
2022/06/12 15:06:32;;;;;;;;;;;;;;;31.15;26.27;99973.66;1089705;46;19954;-82
2022/06/12 15:07:33;;;;;;;;;;;;;;;31.14;26.67;99963.72;1089100;46;20639;-84
2022/06/12 15:08:37;;;;;;;;;;;;;;;31.27;26.64;99961.16;1088303;54;20006;-87
2022/06/12 15:09:41;;;;;;;;;;;;;;;31.15;26.52;99952.44;1088509;54;19951;-86
2022/06/12 15:16:00;;;;;;;;;;;;;;;31.07;26.33;99950.25;1088094;54;19945;-87
2022/06/12 15:17:01;;;;;;;;;;;;;;;31.04;26.63;99945.28;1088257;54;19926;-85
2022/06/12 15:18:06;;;;;;;;;;;;;;;30.98;26.86;99950.00;1088477;54;19931;-83
2022/06/12 15:19:12;;;;;;;;;;;;;;;30.87;27.14;99948.38;1088394;54;19946;-85
2022/06/12 15:20:14;;;;;;;;;;;;;;;30.74;27.23;99941.56;1095085;39;20545;-85
2022/06/12 15:22:22;;;;;;;;;;;;;;;30.78;27.36;99942.66;1088520;54;19941;-86
2022/06/12 15:23:24;;;;;;;;;;;;;;;30.81;27.20;99942.06;1088485;54;19938;-87
2022/06/12 15:24:29;;;;;;;;;;;;;;;30.74;27.33;99949.84;1088602;46;19926;-87
2022/06/12 15:30:27;;;;;;;;;;;;;;;30.69;26.54;99933.31;1088455;54;19947;-85
2022/06/12 15:31:29;;;;;;;;;;;;;;;30.75;26.74;99937.69;1088393;54;19931;-86
2022/06/12 15:32:35;;;;;;;;;;;;;;;30.73;27.28;99934.38;1088449;54;19927;-86
2022/06/12 15:33:36;;;;;;;;;;;;;;;30.72;26.76;99930.81;1088159;54;19949;-85
2022/06/12 15:34:42;;;;;;;;;;;;;;;30.93;27.15;99928.78;1094908;39;20435;-85
2022/06/12 15:35:44;;;;;;;;;;;;;;;30.73;27.16;99926.09;1088410;54;20537;-84
2022/06/12 15:36:47;;;;;;;;;;;;;;;30.76;27.24;99928.31;1088451;54;20578;-84
2022/06/12 15:38:52;;;;;;;;;;;;;;;30.76;27.24;99922.78;1087872;47;21046;-88
2022/06/12 15:39:59;;;;;;;;;;;;;;;31.01;27.32;99913.56;1085639;46;19935;-85
2022/06/12 15:41:00;;;;;;;;;;;;;;;31.13;26.97;99917.94;1088406;54;19945;-84
2022/06/12 15:45:14;;;;;;;;;;;;;;;30.85;27.19;99914.72;1089994;47;19931;-85
2022/06/12 15:47:22;;;;;;;;;;;;;;;30.91;27.50;99911.66;1088397;54;19941;-84
2022/06/12 15:49:29;;;;;;;;;;;;;;;30.89;27.83;99911.13;1088226;54;19927;-84
2022/06/12 15:50:32;;;;;;;;;;;;;;;30.87;27.64;99915.28;1089031;46;19981;-85
2022/06/12 15:51:37;;;;;;;;;;;;;;;30.79;27.76;99905.69;1088057;54;19943;-86
2022/06/12 15:52:38;;;;;;;;;;;;;;;30.65;28.16;99911.81;1088096;54;19926;-85
2022/06/12 15:53:42;;;;;;;;;;;;;;;30.73;27.66;99912.31;1088361;47;19943;-87
2022/06/12 15:54:46;;;;;;;;;;;;;;;30.70;27.87;99908.19;1088299;54;19931;-86
2022/06/12 15:55:48;;;;;;;;;;;;;;;30.50;28.36;99914.59;1088384;54;20586;-85
2022/06/12 15:58:58;;;;;;;;;;;;;;;30.40;28.71;99911.88;1088390;54;19943;-85
2022/06/12 16:03:12;;;;;;;;;;;;;;;30.80;28.49;99912.81;1088598;54;19935;-87
2022/06/12 16:04:22;;;;;;;;;;;;;;;30.85;28.21;99903.69;1086417;47;19950;-87
2022/06/12 16:05:27;;;;;;;;;;;;;;;30.85;28.11;99909.22;1086616;54;19939;31
2022/06/12 16:07:36;;;;;;;;;;;;;;;30.88;28.14;99894.88;1088437;54;19926;-89
2022/06/12 16:09:43;;;;;;;;;;;;;;;30.65;29.13;99894.44;1087914;54;19942;-84
2022/06/12 16:10:47;;;;;;;;;;;;;;;30.69;29.13;99898.28;1088051;54;19942;-84
2022/06/12 16:11:48;;;;;;;;;;;;;;;30.57;29.04;99895.84;1088314;54;19934;-85
2022/06/12 16:12:52;;;;;;;;;;;;;;;30.59;29.29;99893.63;1088483;54;19935;-86
2022/06/12 16:13:53;;;;;;;;;;;;;;;30.43;29.23;99894.75;1088226;54;19934;-85
2022/06/12 16:19:07;;;;;;;;;;;;;;;30.28;28.67;99895.63;1088389;54;19923;-84
2022/06/12 16:20:11;;;;;;;;;;;;;;;30.09;28.75;99895.41;1088353;54;19942;-85
2022/06/12 16:21:16;;;;;;;;;;;;;;;30.11;28.59;99893.22;1093309;47;19943;-87
2022/06/12 16:23:25;;;;;;;;;;;;;;;30.30;28.82;99893.41;1088731;54;19926;-85
2022/06/12 16:26:35;;;;;;;;;;;;;;;30.21;29.16;99884.91;1088529;54;19923;-86
2022/06/12 16:27:37;;;;;;;;;;;;;;;30.32;29.25;99875.50;1088548;54;19930;-86
2022/06/12 16:28:41;;;;;;;;;;;;;;;30.11;29.50;99882.19;1088499;54;19954;-86
2022/06/12 16:30:49;;;;;;;;;;;;;;;29.98;29.65;99878.91;1088578;54;19941;-85
2022/06/12 16:31:50;;;;;;;;;;;;;;;29.79;30.30;99873.13;1088718;54;19930;-85
2022/06/12 16:32:55;;;;;;;;;;;;;;;29.78;30.42;99878.91;1095920;46;19942;-86
2022/06/12 16:33:56;;;;;;;;;;;;;;;29.71;30.35;99871.75;1090534;46;19943;-87
2022/06/12 16:37:07;;;;;;;;;;;;;;;29.63;31.09;99868.72;1088715;54;19974;-85
2022/06/12 16:38:09;;;;;;;;;;;;;;;29.88;30.77;99860.44;1088739;54;19926;-85
2022/06/12 16:39:16;;;;;;;;;;;;;;;29.96;30.83;99864.56;1088800;54;19923;-84
2022/06/12 16:40:19;;;;;;;;;;;;;;;29.97;30.90;99866.22;1088746;54;20014;-84
2022/06/12 16:41:45;;;;;;;;;;;;;;;29.85;31.10;99866.50;1091140;46;19974;-84
2022/06/12 16:44:53;;;;;;;;;;;;;;;29.85;31.38;99860.19;1088290;54;19963;-88
2022/06/12 16:46:59;;;;;;;;;;;;;;;29.70;31.74;99864.59;1088535;54;19939;-85
2022/06/12 16:48:02;;;;;;;;;;;;;;;29.90;31.69;99857.41;1088795;54;19975;-83
2022/06/12 16:49:06;;;;;;;;;;;;;;;29.90;31.67;99851.88;1088707;54;19938;-83
2022/06/12 16:50:07;;;;;;;;;;;;;;;29.88;31.75;99852.19;1088699;54;19927;-85
2022/06/12 16:51:13;;;;;;;;;;;;;;;29.74;31.94;99856.59;1088627;54;19926;-85
2022/06/12 16:52:15;;;;;;;;;;;;;;;29.69;32.39;99871.19;1088731;54;19987;-85
2022/06/12 16:58:34;;;;;;;;;;;;;;;29.71;32.52;99863.50;1088618;54;19934;-86
2022/06/12 17:00:41;;;;;;;;;;;;;;;29.94;32.55;99858.53;1088748;54;19946;-85
2022/06/12 17:02:48;;;;;;;;;;;;;;;29.78;32.63;99860.47;1088745;54;19933;-84
2022/06/12 17:04:55;;;;;;;;;;;;;;;29.84;32.52;99858.53;1089160;54;19974;-87
2022/06/12 17:05:56;;;;;;;;;;;;;;;29.72;32.54;99861.53;1096211;46;19930;-85
2022/06/12 17:08:05;;;;;;;;;;;;;;;29.50;33.50;99864.59;1089105;54;19938;-87
2022/06/12 17:11:18;;;;;;;;;;;;;;;29.49;33.52;99862.94;1088962;54;19943;-87
2022/06/12 17:13:35;;;;;;;;;;;;;;;29.48;32.86;99861.28;1087433;54;19927;31
2022/06/12 17:29:20;;;;;;;;;;;;;;;29.63;32.99;99855.78;1083740;54;19947;-79
2022/06/12 17:30:21;;;;;;;;;;;;;;;29.57;33.15;99854.97;1084492;54;19947;-80
2022/06/12 17:31:25;;;;;;;;;;;;;;;29.51;33.40;99860.75;1084064;54;19956;-80
2022/06/12 17:32:29;;;;;;;;;;;;;;;29.62;33.14;99859.66;1084753;39;20617;-82
2022/06/12 17:33:30;;;;;;;;;;;;;;;29.73;33.32;99858.53;1084353;54;20762;-79
2022/06/12 17:34:34;;;;;;;;;;;;;;;29.79;33.22;99853.00;1083216;54;19950;-79
2022/06/12 17:35:35;;;;;;;;;;;;;;;29.84;33.46;99850.25;1083452;54;19946;-80
2022/06/12 17:36:39;;;;;;;;;;;;;;;29.86;33.20;99850.78;1083001;54;19954;-79
2022/06/12 17:37:40;;;;;;;;;;;;;;;29.88;33.06;99854.09;1083957;39;20479;-80
2022/06/12 17:38:44;;;;;;;;;;;;;;;29.90;32.73;99851.88;1083382;54;19951;-78
2022/06/12 17:39:45;;;;;;;;;;;;;;;29.90;33.21;99856.59;1083367;54;20429;-81
2022/06/12 17:40:49;;;;;;;;;;;;;;;29.84;33.38;99858.53;1084011;54;19954;-79
2022/06/12 17:41:50;;;;;;;;;;;;;;;29.89;33.22;99864.00;1083075;54;19953;-79
2022/06/12 17:42:54;;;;;;;;;;;;;;;29.86;33.28;99857.13;1082941;54;19951;-78
2022/06/12 17:43:55;;;;;;;;;;;;;;;29.82;33.19;99856.03;1083047;54;20741;-80
2022/06/12 17:45:02;;;;;;;;;;;;;;;29.72;33.48;99865.16;1083203;54;19950;-80
2022/06/12 17:46:06;;;;;;;;;;;;;;;29.71;33.33;99852.47;1084083;39;20407;-83
2022/06/12 17:47:07;;;;;;;;;;;;;;;29.68;33.45;99861.28;1083343;54;20445;-82
2022/06/12 17:48:14;;;;;;;;;;;;;;;29.67;33.35;99859.63;1083695;54;19946;-78
2022/06/12 17:49:16;;;;;;;;;;;;;;;29.66;33.53;99860.72;1084219;54;19969;-79
2022/06/12 17:50:20;;;;;;;;;;;;;;;29.62;33.50;99867.91;1083894;54;19964;-80
2022/06/12 17:51:24;;;;;;;;;;;;;;;29.62;33.74;99862.41;1083755;54;19946;-80
2022/06/12 17:52:28;;;;;;;;;;;;;;;29.55;34.03;99862.66;1084057;54;19955;-78
2022/06/12 17:53:29;;;;;;;;;;;;;;;29.58;34.03;99861.28;1083891;54;19947;-80
2022/06/12 17:54:34;;;;;;;;;;;;;;;29.54;34.00;99862.97;1084183;46;19970;-83
2022/06/12 17:55:35;;;;;;;;;;;;;;;29.55;33.86;99867.38;1083797;54;19953;-79
2022/06/12 17:56:39;;;;;;;;;;;;;;;29.56;33.97;99863.50;1083680;54;19947;-79
2022/06/12 17:57:43;;;;;;;;;;;;;;;29.44;34.61;99865.72;1083690;54;19973;-78
2022/06/12 17:58:45;;;;;;;;;;;;;;;29.46;34.47;99866.28;1084174;54;19969;-78
2022/06/12 17:59:48;;;;;;;;;;;;;;;29.46;34.38;99864.31;1083675;54;19957;-79
2022/06/12 18:00:56;;;;;;;;;;;;;;;29.36;34.42;99865.16;1083374;54;19954;-82
2022/06/12 18:01:57;;;;;;;;;;;;;;;29.33;34.58;99865.69;1082581;54;19946;-82
2022/06/12 18:03:09;;;;;;;;;;;;;;;29.32;34.56;99868.72;1083130;54;19946;-81
2022/06/12 18:04:13;;;;;;;;;;;;;;;29.31;34.84;99867.06;1083634;54;19950;-81
2022/06/12 18:05:21;;;;;;;;;;;;;;;29.30;34.55;99860.72;1083221;54;19947;-80
2022/06/12 18:06:25;;;;;;;;;;;;;;;29.30;34.92;99871.72;1083704;54;19946;-79
2022/06/12 18:07:30;;;;;;;;;;;;;;;29.27;34.63;99867.59;1084882;54;20066;-80
2022/06/12 18:08:32;;;;;;;;;;;;;;;29.27;34.92;99862.09;1083846;47;19947;-80
2022/06/12 18:09:39;;;;;;;;;;;;;;;29.27;35.01;99869.53;1084347;46;19957;-79
2022/06/12 18:10:40;;;;;;;;;;;;;;;29.28;34.88;99865.69;1084241;54;19998;-81
2022/06/12 18:11:45;;;;;;;;;;;;;;;29.26;34.83;99868.69;1083718;54;19957;-80
2022/06/12 18:12:46;;;;;;;;;;;;;;;29.22;35.28;99867.59;1083157;54;19964;-79
2022/06/12 18:13:51;;;;;;;;;;;;;;;29.18;35.27;99876.69;1085022;39;20446;-79
2022/06/12 18:20:03;;;;;;;;;;;;;;;28.88;35.89;99879.06;1084731;54;19950;-81
2022/06/12 18:21:04;;;;;;;;;;;;;;;28.87;36.16;99877.41;1083914;54;20448;-81
2022/06/12 18:22:08;;;;;;;;;;;;;;;28.84;35.84;99886.22;1084100;54;19951;-81
2022/06/12 18:23:09;;;;;;;;;;;;;;;28.80;36.22;99885.09;1084236;54;20440;-80
2022/06/12 18:24:15;;;;;;;;;;;;;;;28.80;35.74;99885.09;1085319;39;20352;-80
2022/06/12 18:25:16;;;;;;;;;;;;;;;28.72;36.33;99880.13;1084418;54;19950;-79
2022/06/12 18:26:20;;;;;;;;;;;;;;;28.73;36.20;99884.53;1084449;54;19946;-81
2022/06/12 18:27:24;;;;;;;;;;;;;;;28.69;36.18;99884.22;1085146;39;20314;-80
2022/06/12 18:28:25;;;;;;;;;;;;;;;28.64;36.15;99882.28;1084826;47;19955;-80
2022/06/12 18:29:28;;;;;;;;;;;;;;;28.59;36.29;99882.25;1085265;31;20501;-80
2022/06/12 18:30:31;;;;;;;;;;;;;;;28.55;36.17;99874.81;1084860;54;19939;-80
2022/06/12 18:31:37;;;;;;;;;;;;;;;28.57;36.34;99880.88;1083942;54;19947;-79
2022/06/12 18:32:41;;;;;;;;;;;;;;;28.54;36.61;99886.91;1084307;54;19947;-79
2022/06/12 18:33:43;;;;;;;;;;;;;;;28.51;36.77;99877.28;1084363;54;20069;-80
2022/06/12 18:34:46;;;;;;;;;;;;;;;28.56;36.35;99884.72;1083940;54;19939;-80
2022/06/12 18:35:49;;;;;;;;;;;;;;;28.60;36.36;99888.59;1084715;54;19950;-80
2022/06/12 18:36:53;;;;;;;;;;;;;;;28.60;36.80;99880.34;1083631;54;20437;-80
2022/06/12 18:37:54;;;;;;;;;;;;;;;28.61;36.59;99882.81;1083601;54;19945;-80
2022/06/12 18:38:58;;;;;;;;;;;;;;;28.57;36.88;99886.38;1083385;54;19947;-79
2022/06/12 18:40:02;;;;;;;;;;;;;;;28.60;36.56;99881.16;1082899;54;19951;-80
2022/06/12 18:41:04;;;;;;;;;;;;;;;28.61;36.47;99884.75;1083554;54;19946;-80
2022/06/12 18:42:08;;;;;;;;;;;;;;;28.54;36.76;99887.75;1084127;54;19970;-80
2022/06/12 18:43:09;;;;;;;;;;;;;;;28.45;37.06;99884.66;1083676;54;19970;-80
2022/06/12 18:44:13;;;;;;;;;;;;;;;28.38;37.25;99891.53;1083580;54;19939;-79
2022/06/12 18:45:14;;;;;;;;;;;;;;;28.35;37.44;99889.31;1084449;54;19981;-80
2022/06/12 18:46:18;;;;;;;;;;;;;;;28.28;37.49;99887.63;1084721;46;19969;-81
2022/06/12 18:47:22;;;;;;;;;;;;;;;28.27;37.39;99876.88;1085033;54;19946;-80
2022/06/12 18:48:26;;;;;;;;;;;;;;;28.25;37.60;99887.31;1084074;54;19946;-80
2022/06/12 18:49:30;;;;;;;;;;;;;;;28.20;37.41;99882.63;1083972;54;19953;-80
2022/06/12 18:50:34;;;;;;;;;;;;;;;28.15;37.75;99886.16;1084128;54;20080;-79
2022/06/12 18:51:36;;;;;;;;;;;;;;;28.17;37.68;99881.22;1085113;54;19939;-78
2022/06/12 18:52:40;;;;;;;;;;;;;;;28.15;37.86;99880.66;1087687;54;19950;-81
2022/06/12 18:53:41;;;;;;;;;;;;;;;28.10;38.10;99882.59;1084677;46;19950;-81
2022/06/12 18:54:44;;;;;;;;;;;;;;;28.11;37.84;99879.56;1084812;54;19958;-81
2022/06/12 18:55:48;;;;;;;;;;;;;;;28.06;38.22;99882.22;1084879;54;19947;-80
2022/06/12 18:56:49;;;;;;;;;;;;;;;28.02;38.13;99875.63;1083742;54;19947;-79
2022/06/12 18:57:53;;;;;;;;;;;;;;;28.02;38.36;99881.13;1083966;54;19946;-80
2022/06/12 18:58:57;;;;;;;;;;;;;;;27.97;38.58;99873.69;1084012;54;19953;-81
2022/06/12 18:59:58;;;;;;;;;;;;;;;27.93;38.77;99872.53;1084220;54;19951;-80
2022/06/12 19:01:02;;;;;;;;;;;;;;;27.87;38.93;99873.59;1084694;54;19939;-80
2022/06/12 19:02:07;;;;;;;;;;;;;;;27.84;39.31;99879.63;1084367;54;20034;-80
2022/06/12 19:03:12;;;;;;;;;;;;;;;27.84;38.85;99883.22;1084163;54;19946;-80
2022/06/12 19:04:16;;;;;;;;;;;;;;;27.87;38.71;99876.34;1084448;54;19939;-80
2022/06/12 19:05:17;;;;;;;;;;;;;;;27.91;38.58;99874.75;1084629;54;20030;-80
2022/06/12 19:06:22;;;;;;;;;;;;;;;27.92;38.79;99875.56;1084569;54;19966;-80
2022/06/12 19:07:23;;;;;;;;;;;;;;;27.94;38.66;99878.88;1084172;54;19939;-79
2022/06/12 19:08:27;;;;;;;;;;;;;;;27.92;38.77;99881.06;1084826;54;20437;-79
2022/06/12 19:09:30;;;;;;;;;;;;;;;27.89;38.93;99884.31;1084352;54;19990;-80
2022/06/12 19:10:34;;;;;;;;;;;;;;;27.90;38.66;99877.75;1084239;54;19961;-80
2022/06/12 19:11:40;;;;;;;;;;;;;;;27.87;38.88;99885.41;1084257;54;19962;-79
2022/06/12 19:12:44;;;;;;;;;;;;;;;27.85;39.11;99879.38;1083882;47;19961;-78
2022/06/12 19:13:45;;;;;;;;;;;;;;;27.81;39.00;99880.16;1083698;54;19962;-79
2022/06/12 19:14:49;;;;;;;;;;;;;;;27.81;39.25;99888.41;1083061;54;19970;-79
2022/06/12 19:15:51;;;;;;;;;;;;;;;27.76;39.58;99883.69;1084072;31;20573;-79
2022/06/12 19:16:56;;;;;;;;;;;;;;;27.76;39.16;99883.69;1083249;54;20078;-79
2022/06/12 19:17:58;;;;;;;;;;;;;;;27.65;39.56;99876.47;1083539;54;19950;-80
2022/06/12 19:19:05;;;;;;;;;;;;;;;27.59;39.67;99877.50;1085628;39;20384;-78
2022/06/12 19:20:07;;;;;;;;;;;;;;;27.56;39.31;99878.88;1089004;39;20765;-78
2022/06/12 19:21:12;;;;;;;;;;;;;;;27.51;39.56;99885.13;1088451;39;20595;-81
2022/06/12 19:22:13;;;;;;;;;;;;;;;27.45;39.74;99888.09;1087899;54;19946;-77
2022/06/12 19:23:17;;;;;;;;;;;;;;;27.45;39.60;99877.13;1087432;54;20031;-77
2022/06/12 19:24:19;;;;;;;;;;;;;;;27.46;39.57;99882.38;1087584;54;19943;-78
2022/06/12 19:25:24;;;;;;;;;;;;;;;27.40;39.66;99881.47;1087418;46;19992;-78
2022/06/12 19:26:26;;;;;;;;;;;;;;;27.39;39.68;99884.47;1087552;54;19950;-78
2022/06/12 19:27:31;;;;;;;;;;;;;;;27.34;39.58;99887.16;1087360;54;19954;-78
2022/06/12 19:28:32;;;;;;;;;;;;;;;27.31;39.50;99887.66;1087587;54;19970;-80
2022/06/12 19:29:36;;;;;;;;;;;;;;;27.30;39.55;99892.34;1087326;54;19946;-79
2022/06/12 19:30:37;;;;;;;;;;;;;;;27.26;39.34;99893.94;1087604;54;19946;-77
2022/06/12 19:31:41;;;;;;;;;;;;;;;27.26;39.36;99896.69;1087847;46;19973;-78
2022/06/12 19:32:46;;;;;;;;;;;;;;;27.28;39.46;99888.19;1087414;54;19947;-78
2022/06/12 19:33:48;;;;;;;;;;;;;;;27.28;39.23;99896.44;1087305;54;19949;-77
2022/06/12 19:34:55;;;;;;;;;;;;;;;27.27;38.92;99901.06;1087595;54;19950;-78
2022/06/12 19:35:56;;;;;;;;;;;;;;;27.26;39.32;99896.69;1087704;54;19986;-80
2022/06/12 19:37:01;;;;;;;;;;;;;;;27.28;39.42;99904.66;1087404;54;19953;-78
2022/06/12 19:38:05;;;;;;;;;;;;;;;27.32;39.09;99905.78;1087903;54;19934;-79
2022/06/12 19:39:08;;;;;;;;;;;;;;;27.30;38.97;99897.81;1088214;54;19954;-78
2022/06/12 19:40:13;;;;;;;;;;;;;;;27.31;38.95;99906.88;1088875;39;20418;-79
2022/06/12 19:41:15;;;;;;;;;;;;;;;27.33;38.99;99901.97;1088857;46;19927;-78
2022/06/12 19:42:27;;;;;;;;;;;;;;;27.35;39.03;99899.78;1086437;54;19950;-79
2022/06/12 19:43:28;;;;;;;;;;;;;;;27.33;39.06;99904.69;1085956;54;19947;-79
2022/06/12 19:44:33;;;;;;;;;;;;;;;27.31;39.10;99904.97;1083425;54;19981;-79
2022/06/12 19:45:37;;;;;;;;;;;;;;;27.33;39.09;99901.97;1083363;54;19939;-79
2022/06/12 19:46:38;;;;;;;;;;;;;;;27.29;39.09;99900.84;1083095;54;19970;-80
2022/06/12 19:47:42;;;;;;;;;;;;;;;27.31;38.94;99904.13;1083191;54;20443;-77
2022/06/12 19:48:44;;;;;;;;;;;;;;;27.32;38.70;99905.78;1083399;39;20372;-79
2022/06/12 19:49:48;;;;;;;;;;;;;;;27.27;39.11;99900.25;1082739;54;19950;-79